Time;durP1;ratioP1;P1;durP2;ratioP2;P2;SDS_P1;SDS_P2;PMS_P1;PMS_P2;Temp;Humidity;BMP_temperature;BMP_pressure;BME280_temperature;BME280_humidity;BME280_pressure;Samples;Min_cycle;Max_cycle;Signal;HPM_P1;HPM_P2
2023/07/22 00:00:42;;;;;;;5.20;4.00;;;;;;;;;;108138;1268;41488;-37
2023/07/22 00:03:37;;;;;;;5.00;3.70;;;;;;;;;;108108;1261;175485;-37
2023/07/22 00:06:12;;;;;;;4.80;3.80;;;;;;;;;;108215;1270;40825;-38
2023/07/22 00:08:46;;;;;;;5.10;4.20;;;;;;;;;;108206;1256;42128;-37
2023/07/22 00:11:21;;;;;;;5.40;4.30;;;;;;;;;;108274;1266;41067;-37
2023/07/22 00:13:55;;;;;;;5.10;4.20;;;;;;;;;;108321;1261;38728;-37
2023/07/22 00:16:30;;;;;;;5.10;4.10;;;;;;;;;;108302;1269;40390;-38
2023/07/22 00:19:07;;;;;;;5.10;4.00;;;;;;;;;;108265;1257;42044;-36
2023/07/22 00:21:44;;;;;;;5.30;4.10;;;;;;;;;;108200;1259;43351;-38
2023/07/22 00:24:18;;;;;;;5.60;4.00;;;;;;;;;;108184;1270;40384;-37
2023/07/22 00:26:52;;;;;;;5.00;4.10;;;;;;;;;;108261;1257;40194;-38
2023/07/22 00:29:26;;;;;;;5.30;4.00;;;;;;;;;;108173;1257;42082;-37
2023/07/22 00:32:00;;;;;;;5.10;3.90;;;;;;;;;;108320;1257;42711;-38
2023/07/22 00:34:34;;;;;;;5.40;4.40;;;;;;;;;;108279;1257;40103;-38
2023/07/22 00:37:08;;;;;;;4.90;4.10;;;;;;;;;;108211;1271;175437;-38
2023/07/22 00:39:42;;;;;;;5.40;4.20;;;;;;;;;;108245;1257;43458;-38
2023/07/22 00:42:16;;;;;;;5.30;4.40;;;;;;;;;;108214;1270;42400;-38
2023/07/22 00:44:50;;;;;;;5.60;4.20;;;;;;;;;;108218;1261;38929;-38
2023/07/22 00:47:25;;;;;;;5.80;4.20;;;;;;;;;;108193;1268;40434;-38
2023/07/22 00:49:59;;;;;;;5.40;4.30;;;;;;;;;;108177;1257;42084;-38
2023/07/22 00:52:33;;;;;;;5.50;4.30;;;;;;;;;;108275;1269;41116;-38
2023/07/22 00:55:09;;;;;;;5.00;4.10;;;;;;;;;;108280;1269;38972;-38
2023/07/22 00:57:42;;;;;;;5.30;4.40;;;;;;;;;;108328;1266;40789;-38
2023/07/22 01:00:18;;;;;;;4.90;3.90;;;;;;;;;;108259;1257;42409;-38
2023/07/22 01:02:54;;;;;;;5.40;4.30;;;;;;;;;;108255;1256;41185;-38
2023/07/22 01:05:30;;;;;;;5.10;4.20;;;;;;;;;;108229;1272;38608;-38
2023/07/22 01:08:05;;;;;;;5.40;4.30;;;;;;;;;;108233;1269;40380;-38
2023/07/22 01:10:38;;;;;;;5.30;4.20;;;;;;;;;;108187;1260;42365;-38
2023/07/22 01:13:12;;;;;;;5.10;4.20;;;;;;;;;;108287;1271;41283;-37
2023/07/22 01:15:46;;;;;;;5.80;4.20;;;;;;;;;;108264;1269;39052;-38
2023/07/22 01:18:21;;;;;;;4.90;4.10;;;;;;;;;;108321;1269;40254;-38
2023/07/22 01:20:55;;;;;;;5.50;4.10;;;;;;;;;;108223;1260;42134;-38
2023/07/22 01:23:29;;;;;;;5.50;4.30;;;;;;;;;;108218;1270;41130;-38
2023/07/22 01:26:05;;;;;;;5.70;4.40;;;;;;;;;;108193;1272;38845;-38
2023/07/22 01:28:40;;;;;;;5.30;4.50;;;;;;;;;;108203;1270;40700;-38
2023/07/22 01:31:14;;;;;;;5.20;4.20;;;;;;;;;;108204;1260;42039;-36
2023/07/22 01:33:49;;;;;;;5.70;4.60;;;;;;;;;;108309;1262;42965;-36
2023/07/22 01:36:23;;;;;;;5.80;4.50;;;;;;;;;;108156;1270;175456;-36
2023/07/22 01:38:58;;;;;;;5.70;4.30;;;;;;;;;;108293;1257;40253;-36
2023/07/22 01:41:32;;;;;;;5.20;4.70;;;;;;;;;;108209;1270;41940;-36
2023/07/22 01:44:08;;;;;;;5.30;4.30;;;;;;;;;;108195;1258;41321;-36
2023/07/22 01:46:43;;;;;;;5.90;4.50;;;;;;;;;;108124;1261;175102;-36
2023/07/22 01:49:17;;;;;;;5.40;4.50;;;;;;;;;;108203;1269;40577;-36
2023/07/22 01:51:55;;;;;;;5.60;4.50;;;;;;;;;;108204;1260;41915;-36
2023/07/22 01:54:29;;;;;;;5.60;4.60;;;;;;;;;;108273;1264;42603;-36
2023/07/22 01:57:04;;;;;;;5.60;4.90;;;;;;;;;;108286;1257;39910;-36
2023/07/22 01:59:38;;;;;;;5.60;4.70;;;;;;;;;;108290;1270;40147;-36
2023/07/22 02:02:13;;;;;;;5.70;4.80;;;;;;;;;;108205;1260;43750;-36
2023/07/22 02:04:47;;;;;;;5.80;5.00;;;;;;;;;;108240;1272;42604;-36
2023/07/22 02:07:22;;;;;;;6.10;5.10;;;;;;;;;;108245;1258;40250;-36
2023/07/22 02:09:58;;;;;;;6.00;4.90;;;;;;;;;;108224;1260;40192;-36
2023/07/22 02:12:32;;;;;;;5.90;5.00;;;;;;;;;;108200;1260;43306;-36
2023/07/22 02:15:09;;;;;;;5.80;5.00;;;;;;;;;;108303;1265;42451;-35
2023/07/22 02:17:43;;;;;;;5.40;4.80;;;;;;;;;;108331;1271;40159;-35
2023/07/22 02:20:19;;;;;;;6.10;5.00;;;;;;;;;;108282;1260;40114;-35
2023/07/22 02:22:52;;;;;;;5.70;4.90;;;;;;;;;;108127;1260;175467;-35
2023/07/22 02:25:27;;;;;;;6.30;5.30;;;;;;;;;;108175;1270;42569;-35
2023/07/22 02:28:01;;;;;;;5.80;5.10;;;;;;;;;;108250;1272;39077;-35
2023/07/22 02:30:37;;;;;;;6.00;4.90;;;;;;;;;;108225;1256;40175;-35
2023/07/22 02:33:12;;;;;;;5.30;4.60;;;;;;;;;;108228;1262;42671;-36
2023/07/22 02:35:46;;;;;;;6.60;4.80;;;;;;;;;;108294;1272;41424;-36
2023/07/22 02:38:20;;;;;;;6.20;5.10;;;;;;;;;;108285;1271;39965;-36
2023/07/22 02:40:54;;;;;;;5.30;4.80;;;;;;;;;;108280;1265;40168;-36
2023/07/22 02:43:29;;;;;;;5.60;4.80;;;;;;;;;;108229;1260;41965;-36
2023/07/22 02:46:05;;;;;;;6.00;5.00;;;;;;;;;;108203;1269;40990;-36
2023/07/22 02:48:40;;;;;;;5.60;4.90;;;;;;;;;;108238;1272;38672;-36
2023/07/22 02:51:14;;;;;;;5.50;4.90;;;;;;;;;;108254;1268;40158;-36
2023/07/22 02:53:48;;;;;;;5.70;4.60;;;;;;;;;;108204;1256;42135;-36
2023/07/22 02:56:22;;;;;;;5.50;4.70;;;;;;;;;;108296;1261;41088;-36
2023/07/22 02:59:01;;;;;;;5.50;4.90;;;;;;;;;;108305;1270;38927;-36
2023/07/22 03:01:35;;;;;;;5.70;5.10;;;;;;;;;;108287;1260;40267;-36
2023/07/22 03:04:12;;;;;;;5.60;4.80;;;;;;;;;;108214;1269;42186;-36
2023/07/22 03:06:46;;;;;;;6.30;5.00;;;;;;;;;;108247;1272;41440;-36
2023/07/22 03:09:21;;;;;;;5.80;4.90;;;;;;;;;;108231;1262;39067;-36
2023/07/22 03:11:56;;;;;;;6.10;4.90;;;;;;;;;;108235;1257;40574;-36
2023/07/22 03:14:37;;;;;;;5.30;4.80;;;;;;;;;;108232;1256;42525;-36
2023/07/22 03:17:16;;;;;;;6.30;5.00;;;;;;;;;;108239;1269;41527;-36
2023/07/22 03:19:50;;;;;;;5.40;4.80;;;;;;;;;;108280;1269;38856;-36
2023/07/22 03:22:25;;;;;;;5.60;4.90;;;;;;;;;;108259;1261;42714;-36
2023/07/22 03:24:58;;;;;;;5.40;4.80;;;;;;;;;;108215;1260;48542;-36
2023/07/22 03:27:33;;;;;;;5.80;5.20;;;;;;;;;;108237;1260;41585;-36
2023/07/22 03:30:10;;;;;;;6.00;5.30;;;;;;;;;;108252;1258;40081;-36
2023/07/22 03:32:45;;;;;;;5.70;5.10;;;;;;;;;;108234;1264;40420;-36
2023/07/22 03:35:21;;;;;;;5.70;5.10;;;;;;;;;;108281;1269;48243;-36
2023/07/22 03:37:58;;;;;;;6.00;5.40;;;;;;;;;;108264;1260;42325;-36
2023/07/22 03:40:32;;;;;;;6.30;5.30;;;;;;;;;;108301;1269;38693;-37
2023/07/22 03:43:06;;;;;;;5.70;5.10;;;;;;;;;;108312;1267;40580;-37
2023/07/22 03:45:40;;;;;;;6.00;5.30;;;;;;;;;;108218;1272;48704;-37
2023/07/22 03:48:15;;;;;;;5.80;5.20;;;;;;;;;;108256;1271;42313;-37
2023/07/22 03:50:49;;;;;;;5.90;5.10;;;;;;;;;;108211;1268;38844;-37
2023/07/22 03:53:33;;;;;;;6.00;5.40;;;;;;;;;;108252;1257;40215;-37
2023/07/22 03:56:08;;;;;;;6.10;5.50;;;;;;;;;;108253;1264;42113;-38
2023/07/22 03:58:42;;;;;;;5.90;5.20;;;;;;;;;;108227;1272;41235;-38
2023/07/22 04:01:16;;;;;;;5.80;5.20;;;;;;;;;;108257;1269;39021;-37
2023/07/22 04:03:52;;;;;;;6.10;5.50;;;;;;;;;;108187;1256;40319;-37
2023/07/22 04:06:26;;;;;;;6.00;5.40;;;;;;;;;;108277;1269;42483;-37
2023/07/22 04:09:01;;;;;;;6.00;5.40;;;;;;;;;;108294;1262;42398;-38
2023/07/22 04:11:35;;;;;;;5.70;5.10;;;;;;;;;;108299;1265;40023;-37
2023/07/22 04:14:09;;;;;;;6.10;5.50;;;;;;;;;;108235;1256;41798;-37
2023/07/22 04:16:43;;;;;;;6.90;5.80;;;;;;;;;;108235;1269;42042;-38
2023/07/22 04:19:19;;;;;;;6.30;5.70;;;;;;;;;;108243;1270;41102;-37
2023/07/22 04:21:54;;;;;;;6.90;6.20;;;;;;;;;;108252;1256;39251;-37
2023/07/22 04:24:29;;;;;;;6.70;6.00;;;;;;;;;;108194;1257;40149;-37
2023/07/22 04:27:04;;;;;;;6.80;6.00;;;;;;;;;;108294;1257;43237;-37
2023/07/22 04:29:39;;;;;;;7.00;6.30;;;;;;;;;;108306;1257;42265;-37
2023/07/22 04:32:14;;;;;;;6.50;5.90;;;;;;;;;;108186;1271;175513;-37
2023/07/22 04:34:48;;;;;;;7.20;6.50;;;;;;;;;;108293;1256;42283;-37
2023/07/22 04:37:22;;;;;;;7.40;6.70;;;;;;;;;;108289;1260;43285;-38
2023/07/22 04:39:56;;;;;;;6.90;6.10;;;;;;;;;;108260;1270;41118;-37
2023/07/22 04:42:33;;;;;;;7.00;6.30;;;;;;;;;;108256;1269;40056;-37
2023/07/22 04:45:10;;;;;;;6.60;5.90;;;;;;;;;;108220;1268;40601;-37
2023/07/22 04:47:46;;;;;;;6.90;6.20;;;;;;;;;;108314;1260;42147;-37
2023/07/22 04:50:22;;;;;;;7.30;6.60;;;;;;;;;;108286;1270;41474;-37
2023/07/22 04:52:57;;;;;;;7.00;6.30;;;;;;;;;;108276;1269;40670;-37
2023/07/22 04:55:32;;;;;;;6.80;6.10;;;;;;;;;;108245;1261;40433;-37
2023/07/22 04:58:08;;;;;;;6.20;5.60;;;;;;;;;;108251;1260;42087;-37
2023/07/22 05:00:42;;;;;;;6.30;5.70;;;;;;;;;;108258;1265;41493;-37
2023/07/22 05:03:17;;;;;;;7.20;6.10;;;;;;;;;;108279;1256;38804;-37
2023/07/22 05:05:53;;;;;;;6.10;5.50;;;;;;;;;;108235;1262;40160;-37
2023/07/22 05:08:27;;;;;;;6.60;5.90;;;;;;;;;;108293;1271;42237;-38
2023/07/22 05:11:02;;;;;;;6.70;6.00;;;;;;;;;;108279;1262;40926;-37
2023/07/22 05:13:36;;;;;;;6.20;5.60;;;;;;;;;;108306;1269;38837;-39
2023/07/22 05:16:10;;;;;;;6.50;5.60;;;;;;;;;;108136;1260;175522;-37
2023/07/22 05:18:44;;;;;;;6.50;5.70;;;;;;;;;;108277;1261;41945;-38
2023/07/22 05:21:18;;;;;;;6.00;5.30;;;;;;;;;;108216;1272;40801;-37
2023/07/22 05:23:52;;;;;;;6.20;5.60;;;;;;;;;;108290;1271;38937;-37
2023/07/22 05:26:26;;;;;;;5.60;5.00;;;;;;;;;;108225;1262;41400;-38
2023/07/22 05:29:00;;;;;;;5.60;5.10;;;;;;;;;;108273;1269;42212;-37
2023/07/22 05:31:34;;;;;;;5.90;5.00;;;;;;;;;;108297;1269;43613;-37
2023/07/22 05:34:08;;;;;;;6.50;5.40;;;;;;;;;;108295;1268;38779;-37
2023/07/22 05:36:42;;;;;;;6.20;5.60;;;;;;;;;;108233;1261;40349;-37
2023/07/22 05:39:18;;;;;;;7.00;5.70;;;;;;;;;;108295;1268;42105;-37
2023/07/22 05:41:52;;;;;;;6.30;5.70;;;;;;;;;;108290;1261;41487;-37
2023/07/22 05:44:27;;;;;;;6.50;5.80;;;;;;;;;;108259;1268;39081;-38
2023/07/22 05:47:01;;;;;;;6.90;6.00;;;;;;;;;;108252;1260;40222;-39
2023/07/22 05:49:34;;;;;;;6.60;6.00;;;;;;;;;;108252;1260;42561;-38
2023/07/22 05:52:10;;;;;;;6.20;5.60;;;;;;;;;;108324;1265;42254;-39
2023/07/22 05:54:44;;;;;;;6.10;5.50;;;;;;;;;;108305;1257;38934;-39
2023/07/22 05:57:17;;;;;;;6.20;5.60;;;;;;;;;;108206;1260;40584;-38
2023/07/22 05:59:51;;;;;;;6.50;5.50;;;;;;;;;;108147;1272;175561;-37
2023/07/22 06:02:40;;;;;;;6.10;5.30;;;;;;;;;;108290;1262;41168;-37
2023/07/22 06:05:15;;;;;;;5.60;5.10;;;;;;;;;;108226;1270;40001;-37
2023/07/22 06:07:49;;;;;;;6.40;5.20;;;;;;;;;;108261;1260;40351;-37
2023/07/22 06:10:23;;;;;;;6.00;5.40;;;;;;;;;;108284;1269;44480;-37
2023/07/22 06:12:57;;;;;;;5.90;5.10;;;;;;;;;;108314;1269;41087;-37
2023/07/22 06:15:33;;;;;;;7.00;5.30;;;;;;;;;;108189;1262;175211;-37
2023/07/22 06:18:08;;;;;;;6.00;5.30;;;;;;;;;;108227;1261;42651;-37
2023/07/22 06:20:43;;;;;;;6.60;5.10;;;;;;;;;;108329;1270;42220;-37
2023/07/22 06:23:17;;;;;;;6.50;4.80;;;;;;;;;;108098;1263;41240;-37
2023/07/22 06:25:51;;;;;;;6.50;4.80;;;;;;;;;;108258;1261;38869;-37
2023/07/22 06:28:28;;;;;;;6.80;5.20;;;;;;;;;;108274;1257;40137;-36
2023/07/22 06:31:02;;;;;;;6.80;4.90;;;;;;;;;;108239;1272;42312;-37
2023/07/22 06:33:37;;;;;;;5.80;4.90;;;;;;;;;;108220;1273;41429;-35
2023/07/22 06:36:11;;;;;;;6.20;4.90;;;;;;;;;;108270;1272;40290;-35
2023/07/22 06:38:46;;;;;;;5.70;4.50;;;;;;;;;;108222;1261;39909;-35
2023/07/22 06:41:20;;;;;;;5.50;4.50;;;;;;;;;;108313;1272;42179;-36
2023/07/22 06:43:54;;;;;;;6.50;4.30;;;;;;;;;;108426;1259;42442;-36
2023/07/22 06:46:28;;;;;;;5.50;4.80;;;;;;;;;;108221;1261;38693;-35
2023/07/22 06:49:03;;;;;;;5.60;4.60;;;;;;;;;;108257;1262;40163;-37
2023/07/22 06:51:37;;;;;;;5.30;4.20;;;;;;;;;;108234;1256;43289;-36
2023/07/22 06:54:11;;;;;;;5.50;4.10;;;;;;;;;;108251;1259;41300;-35
2023/07/22 06:56:45;;;;;;;5.70;4.10;;;;;;;;;;108280;1269;38803;-33
2023/07/22 06:59:19;;;;;;;5.30;4.20;;;;;;;;;;108225;1257;45982;-32
2023/07/22 07:01:54;;;;;;;5.10;4.10;;;;;;;;;;108274;1270;42326;-32
2023/07/22 07:04:29;;;;;;;5.00;4.20;;;;;;;;;;108185;1260;41061;-32
2023/07/22 07:07:03;;;;;;;4.90;4.20;;;;;;;;;;108303;1259;38702;-32
2023/07/22 07:09:38;;;;;;;5.50;3.90;;;;;;;;;;108258;1264;46140;-32
2023/07/22 07:12:15;;;;;;;4.90;4.10;;;;;;;;;;108264;1268;42076;-33
2023/07/22 07:14:52;;;;;;;5.00;3.80;;;;;;;;;;108273;1268;41122;-32
2023/07/22 07:17:28;;;;;;;5.40;3.80;;;;;;;;;;108288;1269;39915;-32
2023/07/22 07:20:02;;;;;;;5.40;4.10;;;;;;;;;;108221;1269;46183;-32
2023/07/22 07:22:36;;;;;;;5.80;3.80;;;;;;;;;;108256;1258;43570;-32
2023/07/22 07:25:11;;;;;;;5.60;3.80;;;;;;;;;;108279;1262;41234;-32
2023/07/22 07:27:45;;;;;;;5.10;3.50;;;;;;;;;;108241;1262;40180;-32
2023/07/22 07:30:19;;;;;;;5.20;3.50;;;;;;;;;;108246;1260;47242;-32
2023/07/22 07:32:53;;;;;;;5.40;3.60;;;;;;;;;;108259;1261;44793;-32
2023/07/22 07:35:27;;;;;;;4.90;3.60;;;;;;;;;;108274;1268;41139;-32
2023/07/22 07:38:01;;;;;;;4.80;3.20;;;;;;;;;;108241;1264;38847;-35
2023/07/22 07:40:35;;;;;;;5.10;3.30;;;;;;;;;;108246;1259;46629;-35
2023/07/22 07:43:09;;;;;;;4.50;3.20;;;;;;;;;;108228;1269;42439;-36
2023/07/22 07:45:43;;;;;;;5.10;3.10;;;;;;;;;;108206;1263;41407;-36
2023/07/22 07:48:17;;;;;;;4.70;3.00;;;;;;;;;;108234;1269;38848;-36
2023/07/22 07:50:51;;;;;;;4.80;2.90;;;;;;;;;;108259;1271;48631;-36
2023/07/22 07:53:25;;;;;;;4.10;2.70;;;;;;;;;;108227;1268;41949;-38
2023/07/22 07:55:59;;;;;;;4.80;2.70;;;;;;;;;;108265;1272;41472;-39
2023/07/22 07:58:33;;;;;;;4.50;3.00;;;;;;;;;;108244;1262;40380;-40
2023/07/22 08:01:08;;;;;;;4.80;3.10;;;;;;;;;;108264;1269;47561;-40
2023/07/22 08:03:45;;;;;;;4.90;3.00;;;;;;;;;;108254;1272;43294;-41
2023/07/22 08:06:19;;;;;;;4.30;2.70;;;;;;;;;;108136;1269;175503;-38
2023/07/22 08:08:53;;;;;;;4.30;2.80;;;;;;;;;;108221;1270;40155;-37
2023/07/22 08:11:27;;;;;;;4.30;2.80;;;;;;;;;;108278;1261;47582;-39
2023/07/22 08:14:01;;;;;;;4.30;2.80;;;;;;;;;;108247;1260;42102;-34
2023/07/22 08:16:35;;;;;;;4.40;2.50;;;;;;;;;;108126;1262;175751;-34
2023/07/22 08:19:09;;;;;;;4.10;2.60;;;;;;;;;;108235;1259;38969;-34
2023/07/22 08:21:43;;;;;;;4.10;2.60;;;;;;;;;;108221;1261;46827;-34
2023/07/22 08:24:17;;;;;;;4.30;2.70;;;;;;;;;;108266;1270;42625;-34
2023/07/22 08:26:51;;;;;;;4.20;2.60;;;;;;;;;;108285;1262;41592;-34
2023/07/22 08:29:25;;;;;;;4.50;2.50;;;;;;;;;;108239;1269;38693;-40
2023/07/22 08:31:59;;;;;;;4.00;2.30;;;;;;;;;;108229;1272;46247;-39
2023/07/22 08:34:35;;;;;;;4.40;2.30;;;;;;;;;;108202;1269;42275;-39
2023/07/22 08:37:10;;;;;;;5.10;2.80;;;;;;;;;;108226;1268;41190;-37
2023/07/22 08:39:44;;;;;;;4.90;2.50;;;;;;;;;;108184;1269;39972;-36
2023/07/22 08:42:20;;;;;;;4.60;2.30;;;;;;;;;;108259;1261;47991;-36
2023/07/22 08:44:59;;;;;;;4.60;2.60;;;;;;;;;;108265;1259;42203;-35
2023/07/22 08:47:34;;;;;;;4.30;2.30;;;;;;;;;;108264;1269;41055;-35
2023/07/22 08:50:12;;;;;;;4.90;2.50;;;;;;;;;;108179;1272;38955;-35
2023/07/22 08:52:46;;;;;;;4.10;2.20;;;;;;;;;;108230;1268;41559;-35
2023/07/22 08:55:21;;;;;;;4.40;2.20;;;;;;;;;;108269;1259;43262;-35
2023/07/22 08:57:56;;;;;;;4.70;2.50;;;;;;;;;;108251;1260;41317;-34
2023/07/22 09:00:30;;;;;;;5.00;2.30;;;;;;;;;;108229;1257;39032;-34
2023/07/22 09:03:05;;;;;;;3.60;2.30;;;;;;;;;;108231;1257;42451;-34
2023/07/22 09:05:40;;;;;;;4.20;2.10;;;;;;;;;;108251;1260;43311;-34
2023/07/22 09:08:13;;;;;;;4.40;2.40;;;;;;;;;;108235;1262;42648;-34
2023/07/22 09:10:48;;;;;;;4.10;2.30;;;;;;;;;;108211;1259;38824;-34
2023/07/22 09:13:24;;;;;;;4.50;2.50;;;;;;;;;;108247;1268;40176;-34
2023/07/22 09:16:01;;;;;;;4.60;2.50;;;;;;;;;;108241;1268;43276;-34
2023/07/22 09:18:36;;;;;;;5.20;2.40;;;;;;;;;;108225;1272;41404;-34
2023/07/22 09:21:10;;;;;;;4.40;2.40;;;;;;;;;;108242;1256;39024;-34
2023/07/22 09:23:44;;;;;;;4.40;2.50;;;;;;;;;;108260;1272;41381;-35
2023/07/22 09:26:20;;;;;;;4.30;2.50;;;;;;;;;;108240;1263;44775;-35
2023/07/22 09:28:57;;;;;;;4.00;2.30;;;;;;;;;;108278;1262;42428;-34
2023/07/22 09:31:33;;;;;;;4.80;2.20;;;;;;;;;;108184;1257;39941;-36
2023/07/22 09:34:14;;;;;;;4.30;2.30;;;;;;;;;;108284;1271;40620;-34
2023/07/22 09:37:01;;;;;;;3.60;2.20;;;;;;;;;;108276;1268;41933;-36
2023/07/22 09:39:39;;;;;;;4.70;2.30;;;;;;;;;;108235;1272;41078;-37
2023/07/22 09:42:13;;;;;;;4.20;2.30;;;;;;;;;;108237;1263;39033;-34
2023/07/22 09:44:51;;;;;;;4.40;2.20;;;;;;;;;;108125;1263;175121;-34
2023/07/22 09:47:27;;;;;;;4.80;2.30;;;;;;;;;;108245;1256;42473;-35
2023/07/22 09:50:00;;;;;;;3.90;2.20;;;;;;;;;;108228;1269;42505;-35
2023/07/22 09:52:34;;;;;;;3.70;2.10;;;;;;;;;;108207;1260;39945;-35
2023/07/22 09:55:09;;;;;;;4.50;2.20;;;;;;;;;;108072;1264;40257;-35
2023/07/22 09:57:47;;;;;;;4.00;2.10;;;;;;;;;;108287;1268;42269;-35
2023/07/22 10:00:21;;;;;;;3.90;2.00;;;;;;;;;;108255;1271;41408;-35
2023/07/22 10:02:59;;;;;;;3.80;2.00;;;;;;;;;;108245;1263;38830;-36
2023/07/22 10:05:39;;;;;;;3.60;2.00;;;;;;;;;;108294;1272;40141;-35
2023/07/22 10:08:17;;;;;;;4.70;2.20;;;;;;;;;;108332;1257;43305;-35
2023/07/22 10:10:54;;;;;;;3.90;2.20;;;;;;;;;;108250;1257;42264;-34
2023/07/22 10:13:30;;;;;;;4.00;2.10;;;;;;;;;;108195;1261;39852;-33
2023/07/22 10:16:05;;;;;;;3.70;2.00;;;;;;;;;;108261;1262;40238;-33
2023/07/22 10:18:43;;;;;;;4.00;2.10;;;;;;;;;;108247;1259;42240;-34
2023/07/22 10:21:18;;;;;;;3.70;2.00;;;;;;;;;;108265;1256;41120;-34
2023/07/22 10:23:53;;;;;;;4.20;2.00;;;;;;;;;;108178;1260;40432;-33
2023/07/22 10:26:27;;;;;;;3.70;1.80;;;;;;;;;;108278;1263;41370;-33
2023/07/22 10:29:18;;;;;;;;;;;;;;;;;;108271;1262;44135;-33
2023/07/22 10:31:52;;;;;;;4.30;2.00;;;;;;;;;;108242;1257;41781;-34
2023/07/22 10:34:28;;;;;;;4.10;2.10;;;;;;;;;;108144;1262;43967;-34
2023/07/22 10:37:06;;;;;;;4.30;1.90;;;;;;;;;;108255;1257;40305;-36
2023/07/22 10:39:40;;;;;;;3.40;1.90;;;;;;;;;;108327;1266;42078;-36
2023/07/22 10:42:28;;;;;;;4.10;2.00;;;;;;;;;;108250;1271;42413;-36
2023/07/22 10:45:04;;;;;;;3.60;2.00;;;;;;;;;;108098;1262;43890;-36
2023/07/22 10:47:39;;;;;;;3.40;1.80;;;;;;;;;;108247;1268;40181;-36
2023/07/22 10:50:15;;;;;;;3.80;1.80;;;;;;;;;;108131;1259;195402;-36
2023/07/22 10:52:51;;;;;;;3.20;1.70;;;;;;;;;;108276;1261;41298;-36
2023/07/22 10:55:25;;;;;;;3.70;1.90;;;;;;;;;;108283;1260;44139;-36
2023/07/22 10:58:07;;;;;;;3.60;1.70;;;;;;;;;;108294;1269;40245;-36
2023/07/22 11:00:44;;;;;;;3.40;1.70;;;;;;;;;;108255;1258;43389;-36
2023/07/22 11:03:21;;;;;;;2.90;1.50;;;;;;;;;;108297;1261;41213;-37
2023/07/22 11:05:58;;;;;;;3.30;1.50;;;;;;;;;;108240;1256;46453;-36
2023/07/22 11:08:42;;;;;;;3.30;1.60;;;;;;;;;;108242;1272;40226;-36
2023/07/22 11:11:16;;;;;;;3.70;1.70;;;;;;;;;;108237;1268;42088;-36
2023/07/22 11:13:53;;;;;;;3.20;1.50;;;;;;;;;;108202;1258;41164;-36
2023/07/22 11:16:31;;;;;;;3.00;1.40;;;;;;;;;;108300;1257;38785;-36
2023/07/22 11:19:05;;;;;;;3.30;1.60;;;;;;;;;;108357;1269;40376;-36
2023/07/22 11:21:40;;;;;;;3.80;1.70;;;;;;;;;;108303;1272;41995;-36
2023/07/22 11:24:15;;;;;;;3.00;1.60;;;;;;;;;;108242;1259;41211;-36
2023/07/22 11:26:52;;;;;;;3.70;1.40;;;;;;;;;;108238;1261;41070;-36
2023/07/22 11:29:25;;;;;;;3.50;1.80;;;;;;;;;;108217;1268;40366;-36
2023/07/22 11:32:00;;;;;;;3.30;1.60;;;;;;;;;;108236;1263;43635;-36
2023/07/22 11:34:34;;;;;;;3.30;1.60;;;;;;;;;;108274;1257;42531;-37
2023/07/22 11:37:09;;;;;;;3.50;1.60;;;;;;;;;;108245;1269;175485;-37
2023/07/22 11:39:44;;;;;;;3.50;1.90;;;;;;;;;;108343;1269;40434;-36
2023/07/22 11:42:19;;;;;;;3.70;1.90;;;;;;;;;;108322;1269;42410;-36
2023/07/22 11:44:53;;;;;;;3.90;1.60;;;;;;;;;;108239;1259;41286;-36
2023/07/22 11:47:34;;;;;;;3.60;1.70;;;;;;;;;;108186;1272;40381;-34
2023/07/22 11:50:12;;;;;;;4.50;2.50;;;;;;;;;;108169;1263;121091;-34
2023/07/22 11:52:52;;;;;;;7.30;2.70;;;;;;;;;;108290;1260;43540;-40
2023/07/22 11:55:27;;;;;;;5.60;2.40;;;;;;;;;;108196;1260;41486;-39
2023/07/22 11:58:10;;;;;;;4.70;2.70;;;;;;;;;;108271;1269;39210;-36
2023/07/22 12:00:46;;;;;;;5.00;2.60;;;;;;;;;;108161;1268;40491;-38
2023/07/22 12:03:38;;;;;;;4.40;2.30;;;;;;;;;;108282;1270;42099;-38
2023/07/22 12:06:12;;;;;;;4.90;2.10;;;;;;;;;;108248;1256;41336;-38
2023/07/22 12:08:52;;;;;;;3.60;2.00;;;;;;;;;;108226;1270;39030;-39
2023/07/22 12:11:27;;;;;;;4.00;2.10;;;;;;;;;;108267;1273;40341;-38
2023/07/22 12:14:11;;;;;;;3.60;1.80;;;;;;;;;;108279;1262;41914;-39
2023/07/22 12:16:48;;;;;;;4.10;1.90;;;;;;;;;;108201;1257;41170;-36
2023/07/22 12:19:23;;;;;;;4.00;1.80;;;;;;;;;;108262;1270;38865;-36
2023/07/22 12:21:59;;;;;;;3.30;1.60;;;;;;;;;;108279;1270;40420;-36
2023/07/22 12:24:34;;;;;;;3.30;1.60;;;;;;;;;;108257;1260;44711;-36
2023/07/22 12:27:10;;;;;;;2.80;1.40;;;;;;;;;;108164;1257;41704;-36
2023/07/22 12:29:43;;;;;;;3.60;2.00;;;;;;;;;;108310;1261;38931;-36
2023/07/22 12:32:17;;;;;;;3.30;2.00;;;;;;;;;;108275;1273;40210;-36
2023/07/22 12:34:51;;;;;;;3.50;1.70;;;;;;;;;;108316;1272;42225;-36
2023/07/22 12:37:25;;;;;;;4.80;1.80;;;;;;;;;;108256;1269;41596;-36
2023/07/22 12:39:59;;;;;;;3.10;1.50;;;;;;;;;;108216;1267;39020;-36
2023/07/22 12:42:33;;;;;;;3.10;1.60;;;;;;;;;;108264;1265;41284;-36
2023/07/22 12:45:09;;;;;;;3.10;1.60;;;;;;;;;;108244;1272;42094;-37
2023/07/22 12:47:43;;;;;;;3.90;1.70;;;;;;;;;;108284;1258;42337;-36
2023/07/22 12:50:17;;;;;;;3.20;1.60;;;;;;;;;;108307;1269;38767;-36
2023/07/22 12:52:51;;;;;;;3.00;1.60;;;;;;;;;;108289;1273;41582;-36
2023/07/22 12:55:25;;;;;;;4.40;1.70;;;;;;;;;;108266;1270;42529;-36
2023/07/22 12:57:59;;;;;;;3.40;1.70;;;;;;;;;;108351;1263;48436;-36
2023/07/22 13:00:33;;;;;;;3.80;1.70;;;;;;;;;;108263;1272;40073;-36
2023/07/22 13:03:08;;;;;;;3.60;1.90;;;;;;;;;;108202;1269;40166;-37
2023/07/22 13:05:42;;;;;;;3.00;1.30;;;;;;;;;;108189;1270;41956;-37
2023/07/22 13:08:15;;;;;;;3.10;1.50;;;;;;;;;;108004;1270;49140;-38
2023/07/22 13:10:49;;;;;;;3.50;1.70;;;;;;;;;;108074;1269;39867;-38
2023/07/22 13:13:22;;;;;;;3.00;1.50;;;;;;;;;;108085;1259;40545;-37
2023/07/22 13:15:56;;;;;;;3.60;1.60;;;;;;;;;;108096;1264;42100;-38
2023/07/22 13:18:29;;;;;;;3.10;1.60;;;;;;;;;;108131;1268;48210;-37
2023/07/22 13:21:03;;;;;;;3.40;1.50;;;;;;;;;;108254;1272;39164;-37
2023/07/22 13:23:37;;;;;;;2.60;1.40;;;;;;;;;;108271;1269;40542;-37
2023/07/22 13:26:10;;;;;;;2.60;1.40;;;;;;;;;;108236;1262;43758;-41
2023/07/22 13:28:43;;;;;;;3.30;1.50;;;;;;;;;;108191;1269;47038;-36
2023/07/22 13:31:18;;;;;;;3.10;1.40;;;;;;;;;;108228;1262;38976;-38
2023/07/22 13:33:51;;;;;;;2.60;1.50;;;;;;;;;;108230;1272;40333;-32
2023/07/22 13:36:25;;;;;;;3.90;1.60;;;;;;;;;;108133;1262;42533;-32
2023/07/22 13:38:58;;;;;;;3.60;1.70;;;;;;;;;;108202;1260;48619;-32
2023/07/22 13:41:32;;;;;;;2.90;1.50;;;;;;;;;;108221;1272;39935;-33
2023/07/22 13:44:07;;;;;;;3.10;1.50;;;;;;;;;;108288;1260;40210;-33
2023/07/22 13:46:40;;;;;;;3.20;1.60;;;;;;;;;;108254;1261;42055;-33
2023/07/22 13:49:15;;;;;;;4.10;1.70;;;;;;;;;;108124;1267;48212;-33
2023/07/22 13:51:49;;;;;;;5.80;1.90;;;;;;;;;;108127;1264;40099;-33
2023/07/22 13:54:24;;;;;;;3.20;1.50;;;;;;;;;;108066;1257;40158;-33
2023/07/22 13:56:58;;;;;;;4.10;1.80;;;;;;;;;;108175;1260;42142;-33
2023/07/22 13:59:32;;;;;;;2.80;1.40;;;;;;;;;;108231;1257;47161;-32
2023/07/22 14:02:09;;;;;;;3.40;1.50;;;;;;;;;;108137;1260;192006;-33
2023/07/22 14:04:44;;;;;;;3.00;1.40;;;;;;;;;;108268;1267;40420;-33
2023/07/22 14:07:18;;;;;;;3.20;1.50;;;;;;;;;;108260;1271;42261;-33
2023/07/22 14:09:53;;;;;;;3.10;1.50;;;;;;;;;;108089;1262;46796;-33
2023/07/22 14:12:27;;;;;;;3.20;1.60;;;;;;;;;;108075;1267;38892;-33
2023/07/22 14:15:03;;;;;;;3.90;1.70;;;;;;;;;;108083;1272;40641;-33
2023/07/22 14:17:38;;;;;;;3.20;1.50;;;;;;;;;;108088;1273;42277;-33
2023/07/22 14:20:14;;;;;;;2.80;1.40;;;;;;;;;;108241;1258;48989;-33
2023/07/22 14:22:50;;;;;;;2.80;1.50;;;;;;;;;;108272;1271;38702;-33
2023/07/22 14:25:24;;;;;;;3.90;1.60;;;;;;;;;;108309;1257;39953;-33
2023/07/22 14:27:58;;;;;;;3.50;2.00;;;;;;;;;;108280;1261;45028;-33
2023/07/22 14:30:31;;;;;;;4.20;1.90;;;;;;;;;;108053;1271;47988;-35
2023/07/22 14:33:05;;;;;;;3.60;2.00;;;;;;;;;;108158;1273;38804;-35
2023/07/22 14:35:40;;;;;;;3.60;1.90;;;;;;;;;;108110;1258;40368;-35
2023/07/22 14:38:15;;;;;;;3.70;1.90;;;;;;;;;;108065;1273;43130;-35
2023/07/22 14:40:48;;;;;;;3.20;1.70;;;;;;;;;;108153;1262;48762;-35
2023/07/22 14:43:22;;;;;;;3.80;2.10;;;;;;;;;;108166;1269;40398;-37
2023/07/22 14:45:57;;;;;;;3.10;1.80;;;;;;;;;;108128;1258;175521;-35
2023/07/22 14:48:31;;;;;;;3.70;2.00;;;;;;;;;;108101;1273;175517;-35
2023/07/22 14:51:06;;;;;;;3.70;2.00;;;;;;;;;;108197;1265;47979;-33
2023/07/22 14:53:40;;;;;;;3.60;2.00;;;;;;;;;;108266;1267;39089;-33
2023/07/22 14:56:13;;;;;;;3.50;1.90;;;;;;;;;;108201;1273;41823;-33
2023/07/22 14:58:49;;;;;;;3.70;1.80;;;;;;;;;;108200;1268;42107;-33
2023/07/22 15:01:25;;;;;;;3.90;2.00;;;;;;;;;;108157;1263;46676;-34
2023/07/22 15:04:01;;;;;;;3.50;1.70;;;;;;;;;;108190;1260;38833;-34
2023/07/22 15:06:38;;;;;;;4.30;2.10;;;;;;;;;;108249;1273;39938;-33
2023/07/22 15:09:12;;;;;;;3.50;1.70;;;;;;;;;;108185;1260;42048;-33
2023/07/22 15:11:46;;;;;;;3.90;2.00;;;;;;;;;;108239;1270;42534;-33
2023/07/22 15:14:21;;;;;;;3.40;2.00;;;;;;;;;;108270;1273;38990;-33